Time;durP1;ratioP1;P1;durP2;ratioP2;P2;SDS_P1;SDS_P2;PMS_P1;PMS_P2;Temp;Humidity;BMP_temperature;BMP_pressure;BME280_temperature;BME280_humidity;BME280_pressure;Samples;Min_cycle;Max_cycle;Signal;HPM_P1;HPM_P2
2023/05/07 00:02:11;;;;;;;3.55;1.83;;;15.20;67.90;;;;;;5035677;28;20017;-80
2023/05/07 00:04:38;;;;;;;7.88;2.17;;;15.20;68.30;;;;;;5035641;28;20035;-78
2023/05/07 00:07:04;;;;;;;3.63;1.88;;;15.10;68.60;;;;;;5034959;28;20028;-77
2023/05/07 00:09:30;;;;;;;3.13;1.90;;;15.00;68.50;;;;;;5034882;28;20021;-78
2023/05/07 00:11:56;;;;;;;2.40;1.83;;;15.00;68.80;;;;;;5018631;28;20041;-79
2023/05/07 00:14:22;;;;;;;3.92;2.00;;;15.00;68.90;;;;;;5034958;28;20040;-83
2023/05/07 00:16:48;;;;;;;3.00;2.22;;;14.90;69.20;;;;;;5035530;28;20482;-83
2023/05/07 00:19:13;;;;;;;4.55;2.58;;;14.90;69.30;;;;;;5035402;28;20560;-83
2023/05/07 00:21:39;;;;;;;3.78;2.40;;;14.80;69.70;;;;;;5035706;28;20087;-81
2023/05/07 00:24:06;;;;;;;2.70;2.20;;;14.80;69.90;;;;;;5035295;28;20512;-82
2023/05/07 00:26:31;;;;;;;4.90;1.90;;;14.70;70.70;;;;;;5035631;28;20032;-82
2023/05/07 00:29:00;;;;;;;4.78;2.17;;;14.70;70.50;;;;;;5034778;28;20033;-76
2023/05/07 00:31:25;;;;;;;6.28;2.13;;;14.60;70.50;;;;;;5034979;28;20500;-75
2023/05/07 00:33:51;;;;;;;3.53;2.40;;;14.70;70.70;;;;;;5035136;28;20239;-75
2023/05/07 00:36:16;;;;;;;3.40;2.05;;;14.60;71.00;;;;;;5035048;28;20508;-75
2023/05/07 00:38:42;;;;;;;3.85;2.13;;;14.60;71.20;;;;;;5034692;28;20087;-77
2023/05/07 00:41:07;;;;;;;4.25;2.10;;;14.50;71.30;;;;;;5034550;28;20040;-75
2023/05/07 00:43:33;;;;;;;2.45;2.10;;;14.50;72.00;;;;;;5035183;28;20377;-76
2023/05/07 00:45:59;;;;;;;4.45;2.35;;;14.60;71.20;;;;;;5034773;28;20017;-75
2023/05/07 00:48:25;;;;;;;4.70;2.22;;;14.60;71.10;;;;;;5034813;28;20032;-75
2023/05/07 00:50:51;;;;;;;4.90;2.03;;;14.60;71.20;;;;;;5034886;28;20033;-75
2023/05/07 00:53:17;;;;;;;3.95;2.30;;;14.60;71.40;;;;;;5034865;28;20493;-75
2023/05/07 00:55:43;;;;;;;3.42;2.53;;;14.60;71.40;;;;;;5035233;28;20432;-75
2023/05/07 00:58:09;;;;;;;2.88;2.03;;;14.50;71.80;;;;;;5055819;28;20025;-75
2023/05/07 01:00:35;;;;;;;4.53;2.20;;;14.50;71.90;;;;;;5038996;28;20031;-80
2023/05/07 01:03:01;;;;;;;8.75;2.30;;;14.50;71.70;;;;;;5038889;28;20167;-78
2023/05/07 01:05:31;;;;;;;3.70;2.42;;;14.50;71.80;;;;;;5021792;28;20488;-75
2023/05/07 01:07:57;;;;;;;3.25;2.30;;;14.50;71.80;;;;;;5036959;28;20034;-79
2023/05/07 01:10:24;;;;;;;4.97;1.88;;;14.40;71.60;;;;;;5038123;28;20056;-77
2023/05/07 01:12:50;;;;;;;6.78;2.20;;;14.40;72.00;;;;;;5038775;28;20417;-75
2023/05/07 01:15:17;;;;;;;3.03;2.20;;;14.30;72.20;;;;;;5038487;28;20025;-76
2023/05/07 01:17:43;;;;;;;3.90;2.47;;;14.40;72.40;;;;;;5038482;28;20380;-76
2023/05/07 01:20:13;;;;;;;6.07;2.50;;;14.40;72.10;;;;;;5038185;28;20029;-75
2023/05/07 01:22:40;;;;;;;6.88;2.78;;;14.30;73.00;;;;;;5022479;28;20025;-77
2023/05/07 01:25:07;;;;;;;5.18;2.30;;;14.30;72.60;;;;;;5038236;28;20021;-76
2023/05/07 01:27:36;;;;;;;4.32;2.38;;;14.20;73.00;;;;;;5038785;28;20039;-76
2023/05/07 01:30:05;;;;;;;6.30;2.90;;;14.10;73.30;;;;;;5038192;28;20397;-76
2023/05/07 01:32:50;;;;;;;3.80;2.70;;;14.10;73.60;;;;;;5038303;28;20162;-76
2023/05/07 01:35:20;;;;;;;3.17;2.60;;;14.10;73.60;;;;;;5038329;28;20021;-76
2023/05/07 01:37:47;;;;;;;5.68;2.25;;;14.10;73.60;;;;;;5038168;28;20490;-76
2023/05/07 01:40:13;;;;;;;4.78;2.63;;;14.10;73.60;;;;;;5021727;28;20033;-76
2023/05/07 01:42:39;;;;;;;5.47;2.95;;;14.20;73.50;;;;;;5038085;28;20116;-75
2023/05/07 01:45:06;;;;;;;3.08;2.15;;;14.20;73.40;;;;;;5055911;28;20044;-76
2023/05/07 01:47:33;;;;;;;3.53;2.20;;;14.20;73.30;;;;;;5038156;28;20052;-76
2023/05/07 01:49:59;;;;;;;4.53;2.58;;;14.30;72.80;;;;;;5055689;28;20059;-76
2023/05/07 01:52:25;;;;;;;2.97;2.45;;;14.30;72.80;;;;;;5055709;28;20025;-76
2023/05/07 01:54:50;;;;;;;3.35;2.20;;;14.20;73.00;;;;;;5021220;28;20029;-76
2023/05/07 01:57:16;;;;;;;6.00;2.15;;;14.20;73.90;;;;;;5037730;28;20075;-75
2023/05/07 01:59:41;;;;;;;3.70;2.40;;;14.10;73.40;;;;;;5037664;28;20499;-76
2023/05/07 02:02:07;;;;;;;4.25;2.63;;;14.20;73.20;;;;;;5021070;28;20025;-76
2023/05/07 02:04:32;;;;;;;4.25;2.38;;;14.10;73.20;;;;;;5036947;28;20443;-76
2023/05/07 02:06:58;;;;;;;5.10;2.58;;;14.10;73.60;;;;;;5037879;28;20025;-76
2023/05/07 02:09:23;;;;;;;5.22;2.40;;;14.00;73.80;;;;;;5037352;28;20029;-76
2023/05/07 02:11:49;;;;;;;4.82;2.58;;;14.00;73.90;;;;;;5037383;28;20025;-76
2023/05/07 02:14:15;;;;;;;3.15;2.25;;;13.90;74.30;;;;;;5055634;28;20549;-76
2023/05/07 02:16:43;;;;;;;4.25;2.20;;;13.80;74.50;;;;;;5037691;28;20482;-76
2023/05/07 02:19:09;;;;;;;4.15;2.33;;;13.80;75.00;;;;;;5037525;28;20028;-76
2023/05/07 02:21:34;;;;;;;3.17;2.53;;;13.80;75.00;;;;;;5021480;28;20055;-75
2023/05/07 02:24:00;;;;;;;3.47;2.65;;;13.80;75.40;;;;;;5037828;28;20068;-76
2023/05/07 02:26:25;;;;;;;4.82;2.30;;;13.70;75.60;;;;;;5040404;28;20021;-76
2023/05/07 02:28:51;;;;;;;4.50;2.65;;;13.70;75.90;;;;;;5036996;28;20179;-76
2023/05/07 02:31:17;;;;;;;5.63;2.75;;;13.60;75.90;;;;;;5037000;28;20033;-76
2023/05/07 02:33:42;;;;;;;7.40;2.97;;;13.60;76.10;;;;;;5037210;28;20029;-76
2023/05/07 02:36:10;;;;;;;4.30;2.50;;;13.60;76.10;;;;;;5037268;28;20025;-76
2023/05/07 02:38:35;;;;;;;3.47;2.80;;;13.60;76.10;;;;;;5033766;28;20176;-76
2023/05/07 02:41:01;;;;;;;4.15;2.80;;;13.60;76.00;;;;;;5017259;28;20084;-76
2023/05/07 02:43:27;;;;;;;4.20;2.60;;;13.70;75.70;;;;;;5033468;28;20040;-76
2023/05/07 02:46:07;;;;;;;10.32;2.58;;;13.70;75.60;;;;;;5033714;28;20406;-76
2023/05/07 02:48:35;;;;;;;4.68;2.90;;;13.70;75.60;;;;;;5033439;28;20025;-76
2023/05/07 02:51:01;;;;;;;4.70;2.88;;;13.70;75.60;;;;;;5033658;28;20034;-76
2023/05/07 02:53:27;;;;;;;3.15;2.50;;;13.60;75.90;;;;;;5034293;28;20017;-76
2023/05/07 02:55:57;;;;;;;4.40;3.00;;;13.60;75.90;;;;;;5033314;28;20029;-76
2023/05/07 02:58:23;;;;;;;7.63;2.92;;;13.50;76.10;;;;;;5033191;28;20044;-75
2023/05/07 03:00:49;;;;;;;4.43;2.67;;;13.50;76.40;;;;;;5016945;28;20045;-75
2023/05/07 03:03:15;;;;;;;3.80;2.60;;;13.40;76.30;;;;;;5033298;28;20477;-75
2023/05/07 03:05:41;;;;;;;2.63;2.10;;;13.40;76.40;;;;;;5033359;28;20437;-75
2023/05/07 03:08:09;;;;;;;4.55;2.95;;;13.40;76.50;;;;;;5033403;28;20025;-75
2023/05/07 03:10:35;;;;;;;3.40;2.70;;;13.50;76.60;;;;;;5032867;28;20040;-74
2023/05/07 03:13:01;;;;;;;4.95;2.60;;;13.40;76.40;;;;;;5032677;28;20503;-74
2023/05/07 03:15:28;;;;;;;3.63;2.60;;;13.40;76.90;;;;;;5016658;28;20056;-74
2023/05/07 03:17:54;;;;;;;5.15;2.60;;;13.30;76.80;;;;;;5016598;28;20025;-74
2023/05/07 03:20:20;;;;;;;6.82;3.17;;;13.40;76.80;;;;;;5032128;28;20029;-74
2023/05/07 03:22:45;;;;;;;7.07;3.15;;;13.40;76.90;;;;;;5032772;28;20028;-74
2023/05/07 03:25:11;;;;;;;5.80;2.60;;;13.40;77.10;;;;;;5032701;28;20060;-74
2023/05/07 03:27:38;;;;;;;5.78;3.30;;;13.40;76.80;;;;;;5032909;28;20112;-74
2023/05/07 03:30:06;;;;;;;5.30;3.00;;;13.40;76.70;;;;;;5032800;28;20124;-74
2023/05/07 03:32:32;;;;;;;5.50;2.90;;;13.30;76.70;;;;;;5032660;28;20112;-74
2023/05/07 03:34:57;;;;;;;7.78;3.00;;;13.30;76.90;;;;;;5032761;28;20113;-74
2023/05/07 03:37:26;;;;;;;3.63;2.70;;;13.20;77.20;;;;;;5032516;28;20053;-76
2023/05/07 03:39:51;;;;;;;4.57;2.72;;;13.20;77.20;;;;;;5032384;28;20037;-75
2023/05/07 03:42:17;;;;;;;5.07;2.60;;;13.30;77.30;;;;;;5032692;28;20022;-75
2023/05/07 03:44:43;;;;;;;3.05;2.55;;;13.30;77.30;;;;;;5032514;28;20029;-73
2023/05/07 03:47:10;;;;;;;7.07;3.35;;;13.20;77.40;;;;;;5032096;28;20106;-73
2023/05/07 03:49:36;;;;;;;4.80;2.63;;;13.20;77.70;;;;;;5032499;28;20045;-73
2023/05/07 03:52:01;;;;;;;4.90;2.97;;;13.20;77.50;;;;;;5032286;28;20029;-73
2023/05/07 03:54:27;;;;;;;4.43;3.17;;;13.10;78.00;;;;;;5032420;28;20041;-73
2023/05/07 03:56:53;;;;;;;6.18;2.58;;;13.00;78.40;;;;;;5015974;28;20110;-73
2023/05/07 03:59:18;;;;;;;4.00;2.80;;;13.00;78.50;;;;;;5031638;28;20060;-74
2023/05/07 04:01:44;;;;;;;3.58;2.92;;;13.00;78.40;;;;;;5032122;28;20025;-73
2023/05/07 04:04:10;;;;;;;6.22;2.83;;;13.10;79.10;;;;;;5032335;28;20013;-77
2023/05/07 04:06:35;;;;;;;3.05;2.33;;;13.10;78.10;;;;;;5032060;28;20066;-73
2023/05/07 04:09:01;;;;;;;5.57;2.95;;;13.20;77.90;;;;;;5031958;28;20473;-81
2023/05/07 04:11:26;;;;;;;4.70;3.10;;;13.20;77.60;;;;;;5032085;28;20481;-77
2023/05/07 04:13:52;;;;;;;3.00;2.38;;;13.10;77.70;;;;;;5032246;28;20025;-73
2023/05/07 04:16:17;;;;;;;4.80;3.00;;;13.10;78.00;;;;;;5032036;28;20120;-74
2023/05/07 04:18:43;;;;;;;3.40;2.47;;;13.10;77.90;;;;;;5031566;28;20355;-73
2023/05/07 04:21:19;;;;;;;9.25;3.30;;;13.20;77.70;;;;;;5032079;28;20021;-74
2023/05/07 04:23:49;;;;;;;6.07;3.10;;;13.20;77.20;;;;;;5031677;28;20455;-76
2023/05/07 04:26:15;;;;;;;7.68;3.38;;;13.10;77.50;;;;;;5032046;28;20071;-77
2023/05/07 04:28:41;;;;;;;7.85;3.20;;;13.10;77.90;;;;;;5031836;28;20026;-78
2023/05/07 04:31:07;;;;;;;4.45;3.10;;;13.10;77.60;;;;;;5031640;28;20044;-75
2023/05/07 04:33:33;;;;;;;5.45;2.85;;;12.90;78.00;;;;;;5032106;28;20472;-75
2023/05/07 04:36:02;;;;;;;5.32;3.30;;;12.80;78.80;;;;;;5015550;28;20030;-76
2023/05/07 04:38:29;;;;;;;6.00;3.67;;;12.60;79.50;;;;;;5031696;28;20132;-75
2023/05/07 04:40:55;;;;;;;8.30;3.85;;;12.50;80.10;;;;;;5032007;28;20033;-74
2023/05/07 04:43:21;;;;;;;4.05;3.47;;;12.50;80.30;;;;;;5031716;28;20021;-73
2023/05/07 04:45:47;;;;;;;5.18;3.80;;;12.60;80.10;;;;;;5031799;28;20405;-73
2023/05/07 04:48:14;;;;;;;5.10;3.60;;;12.70;79.80;;;;;;5031877;28;20036;-74
2023/05/07 04:50:40;;;;;;;5.65;3.58;;;12.80;79.40;;;;;;5031514;28;20044;-74
2023/05/07 04:53:06;;;;;;;5.57;3.55;;;12.90;79.20;;;;;;5031604;28;20628;-74
2023/05/07 04:55:31;;;;;;;5.20;3.30;;;13.10;78.70;;;;;;5031661;28;20060;-73
2023/05/07 04:58:00;;;;;;;4.18;2.85;;;13.20;78.10;;;;;;5031586;28;20033;-80
2023/05/07 05:00:26;;;;;;;4.53;3.50;;;13.30;77.80;;;;;;5031570;28;20474;-73
2023/05/07 05:02:52;;;;;;;5.78;3.63;;;13.50;77.00;;;;;;5032914;28;20034;-74
2023/05/07 05:05:17;;;;;;;6.72;2.90;;;13.60;76.50;;;;;;5031455;28;20080;-74
2023/05/07 05:07:43;;;;;;;4.57;2.92;;;13.70;76.30;;;;;;5031524;28;20031;-74
2023/05/07 05:10:09;;;;;;;4.03;3.13;;;13.80;76.00;;;;;;5031639;28;20441;-74
2023/05/07 05:12:34;;;;;;;5.97;3.00;;;14.00;75.40;;;;;;5031305;28;20433;-74
2023/05/07 05:15:00;;;;;;;6.35;3.58;;;14.20;74.90;;;;;;5031359;28;20033;-74
2023/05/07 05:17:25;;;;;;;5.53;3.00;;;14.30;74.20;;;;;;5031207;28;20037;-75
2023/05/07 05:19:51;;;;;;;5.53;3.20;;;14.40;73.70;;;;;;5031156;28;20018;-75
2023/05/07 05:22:16;;;;;;;5.68;3.30;;;14.50;73.30;;;;;;5031392;28;20079;-74
2023/05/07 05:24:42;;;;;;;5.28;3.10;;;14.60;72.60;;;;;;5030988;28;20071;-74
2023/05/07 05:27:09;;;;;;;3.97;3.20;;;14.60;72.30;;;;;;5031326;28;20033;-74
2023/05/07 05:29:34;;;;;;;3.28;2.90;;;14.60;72.30;;;;;;5031086;28;20033;-74
2023/05/07 05:32:00;;;;;;;4.32;3.03;;;14.60;72.20;;;;;;5031115;28;20029;-74
2023/05/07 05:34:25;;;;;;;4.05;2.90;;;14.70;72.10;;;;;;5031532;28;20114;-74
2023/05/07 05:36:52;;;;;;;4.05;2.72;;;14.80;72.10;;;;;;5036195;28;20033;-74
2023/05/07 05:39:18;;;;;;;4.65;3.08;;;14.80;72.10;;;;;;5054707;28;20086;-75
2023/05/07 05:41:44;;;;;;;3.58;2.42;;;14.90;71.80;;;;;;5054554;28;20471;-74
2023/05/07 05:44:10;;;;;;;4.38;3.00;;;15.10;71.70;;;;;;5056942;28;20024;-74
2023/05/07 05:46:35;;;;;;;4.88;2.30;;;15.20;70.70;;;;;;5057891;28;20055;-75
2023/05/07 05:49:01;;;;;;;3.15;2.35;;;15.30;70.40;;;;;;5057612;28;20060;-75
2023/05/07 05:51:26;;;;;;;3.88;2.33;;;15.50;70.30;;;;;;5057977;28;20032;-75
2023/05/07 05:53:52;;;;;;;4.32;2.22;;;15.70;70.00;;;;;;5057924;28;20035;-75
2023/05/07 05:56:18;;;;;;;4.60;3.10;;;15.80;70.10;;;;;;5057729;28;20439;-75
2023/05/07 05:58:46;;;;;;;4.07;2.67;;;15.90;68.30;;;;;;5040747;28;20431;-75
2023/05/07 06:01:12;;;;;;;2.40;2.10;;;16.10;67.90;;;;;;5057600;28;20030;-75
2023/05/07 06:03:37;;;;;;;4.13;2.42;;;16.20;67.60;;;;;;5056773;28;20024;-75
2023/05/07 06:06:03;;;;;;;5.53;2.50;;;16.30;67.40;;;;;;5057685;28;20472;-75
2023/05/07 06:08:31;;;;;;;3.05;2.25;;;16.50;67.10;;;;;;5057647;28;20032;-76
2023/05/07 06:10:59;;;;;;;4.18;2.28;;;16.60;66.80;;;;;;5057658;28;20079;-75
2023/05/07 06:13:25;;;;;;;2.97;2.10;;;16.80;66.40;;;;;;5057512;28;20077;-76
2023/05/07 06:15:52;;;;;;;4.60;2.28;;;16.90;66.10;;;;;;5057658;28;20020;-74
2023/05/07 06:18:17;;;;;;;4.97;2.00;;;17.00;65.60;;;;;;5057550;28;20024;-74
2023/05/07 06:20:43;;;;;;;3.05;2.05;;;17.10;65.20;;;;;;5057018;28;20039;-74
2023/05/07 06:23:10;;;;;;;2.40;1.65;;;17.20;64.90;;;;;;5057154;28;20100;-74
2023/05/07 06:25:36;;;;;;;3.85;1.92;;;17.30;64.80;;;;;;5056746;28;20025;-74
2023/05/07 06:28:02;;;;;;;3.97;2.17;;;17.50;64.60;;;;;;5040613;28;20020;-74
2023/05/07 06:30:28;;;;;;;3.88;2.28;;;17.50;64.10;;;;;;5057007;28;20123;-74
2023/05/07 06:32:55;;;;;;;2.40;2.08;;;17.70;63.70;;;;;;5023822;28;20124;-75
2023/05/07 06:35:20;;;;;;;3.47;2.17;;;17.80;63.50;;;;;;5057242;28;20024;-74
2023/05/07 06:37:46;;;;;;;3.63;2.28;;;17.90;62.40;;;;;;5056603;28;20048;-75
2023/05/07 06:40:11;;;;;;;2.03;1.80;;;17.90;62.30;;;;;;5073927;28;20230;-74
2023/05/07 06:42:37;;;;;;;4.45;1.90;;;17.90;62.30;;;;;;5056576;28;20073;-74
2023/05/07 06:45:05;;;;;;;2.83;1.92;;;18.00;62.60;;;;;;5057134;28;20456;-74
2023/05/07 06:47:34;;;;;;;3.60;2.25;;;18.00;62.60;;;;;;5056787;28;20035;-75
2023/05/07 06:50:01;;;;;;;3.03;2.38;;;18.00;62.00;;;;;;5056722;28;20021;-75
2023/05/07 06:52:28;;;;;;;4.60;2.40;;;17.80;61.80;;;;;;5056599;28;20040;-75
2023/05/07 06:54:55;;;;;;;3.97;2.40;;;17.70;62.90;;;;;;5055718;28;20025;-75
2023/05/07 06:57:21;;;;;;;3.60;2.60;;;17.70;63.70;;;;;;5057050;28;20017;-74
2023/05/07 06:59:47;;;;;;;4.78;2.67;;;17.60;64.70;;;;;;5056687;28;20036;-75
2023/05/07 07:02:14;;;;;;;4.55;2.55;;;17.40;65.60;;;;;;5074450;28;20449;-75
2023/05/07 07:04:43;;;;;;;5.35;3.00;;;17.40;65.80;;;;;;5056438;28;20025;-74
2023/05/07 07:07:09;;;;;;;5.93;2.67;;;17.30;66.20;;;;;;5056445;28;20024;-74
2023/05/07 07:09:34;;;;;;;4.85;3.28;;;17.30;66.30;;;;;;5040079;28;20385;-74
2023/05/07 07:12:55;;;;;;;4.68;2.90;;;17.20;66.30;;;;;;5056635;28;20068;-83
2023/05/07 07:15:58;;;;;;;6.15;2.97;;;17.20;66.80;;;;;;4997508;28;20459;-82
2023/05/07 07:19:04;;;;;;;11.55;3.97;;;17.10;67.10;;;;;;5011194;28;20029;-82
2023/05/07 07:21:31;;;;;;;25.85;5.25;;;17.00;68.20;;;;;;4996959;28;20587;-78
2023/05/07 07:23:57;;;;;;;6.10;2.83;;;17.20;74.70;;;;;;5056689;28;20079;-73
2023/05/07 07:26:22;;;;;;;6.47;3.03;;;17.40;69.90;;;;;;5056187;28;20024;-73
2023/05/07 07:28:49;;;;;;;6.57;2.67;;;17.70;68.70;;;;;;5055984;28;20405;-74
2023/05/07 07:31:15;;;;;;;3.67;2.90;;;17.90;65.50;;;;;;5039994;28;20045;-85
2023/05/07 07:33:41;;;;;;;6.15;3.17;;;18.20;63.40;;;;;;5056422;28;20567;-75
2023/05/07 07:36:07;;;;;;;5.43;2.33;;;18.40;62.20;;;;;;5055881;28;20043;-73
2023/05/07 07:38:33;;;;;;;6.13;3.20;;;18.50;61.40;;;;;;5055878;28;20052;-73
2023/05/07 07:40:59;;;;;;;5.20;2.53;;;18.80;60.60;;;;;;5055931;28;20123;-73
2023/05/07 07:43:25;;;;;;;4.30;2.75;;;18.80;60.90;;;;;;5055682;28;20052;-73
2023/05/07 07:45:51;;;;;;;5.30;2.88;;;18.90;60.40;;;;;;5055616;28;20021;-76
2023/05/07 07:48:16;;;;;;;4.43;3.30;;;19.30;59.50;;;;;;5055768;28;20024;-75
2023/05/07 07:50:42;;;;;;;4.15;2.33;;;19.40;58.00;;;;;;5055336;28;20064;-74
2023/05/07 07:53:08;;;;;;;5.30;2.70;;;19.60;59.00;;;;;;5055626;28;20022;-74
2023/05/07 07:55:39;;;;;;;5.97;3.20;;;19.80;58.20;;;;;;5055547;28;20032;-74
2023/05/07 07:58:05;;;;;;;4.57;2.85;;;19.90;58.30;;;;;;5055275;28;20016;-74
2023/05/07 08:00:30;;;;;;;2.85;2.55;;;20.00;57.90;;;;;;5055535;28;20378;-74
2023/05/07 08:02:56;;;;;;;6.47;2.75;;;19.90;58.60;;;;;;5055556;28;20017;-74
2023/05/07 08:05:23;;;;;;;3.97;2.58;;;19.90;58.40;;;;;;5054876;28;20031;-74
2023/05/07 08:07:52;;;;;;;3.35;2.80;;;19.50;58.50;;;;;;5055382;28;20107;-74
2023/05/07 08:10:21;;;;;;;6.63;3.30;;;19.60;58.70;;;;;;5055216;28;20377;-74
2023/05/07 08:12:51;;;;;;;4.57;2.75;;;19.70;58.70;;;;;;5055537;28;20035;-74
2023/05/07 08:15:17;;;;;;;4.40;2.70;;;19.70;58.80;;;;;;5055336;28;20033;-74
2023/05/07 08:17:43;;;;;;;6.32;3.05;;;19.90;58.10;;;;;;5071891;28;20040;-74
2023/05/07 08:20:09;;;;;;;4.40;2.95;;;20.00;57.20;;;;;;5055308;28;20119;-74
2023/05/07 08:22:36;;;;;;;6.95;2.70;;;20.10;57.00;;;;;;5054983;28;20021;-74
2023/05/07 08:25:02;;;;;;;3.92;2.40;;;20.20;56.60;;;;;;5054685;28;20059;-73
2023/05/07 08:27:27;;;;;;;4.20;2.30;;;20.50;56.20;;;;;;5055425;28;20381;-75
2023/05/07 08:29:54;;;;;;;3.65;2.25;;;20.80;55.20;;;;;;5055132;28;20024;-74
2023/05/07 08:32:20;;;;;;;3.03;2.15;;;21.10;54.00;;;;;;5055276;28;20020;-74
2023/05/07 08:34:48;;;;;;;3.00;2.10;;;21.30;52.60;;;;;;5073510;28;20126;-80
2023/05/07 08:37:15;;;;;;;3.15;2.13;;;21.50;52.20;;;;;;5073170;28;20044;-75
2023/05/07 08:39:42;;;;;;;5.57;2.20;;;21.70;51.00;;;;;;5054959;28;20501;-74
2023/05/07 08:42:11;;;;;;;3.92;1.95;;;21.90;50.00;;;;;;5055031;28;20035;-75
2023/05/07 08:44:39;;;;;;;6.13;2.42;;;21.90;49.70;;;;;;5054609;28;20028;-76
2023/05/07 08:47:07;;;;;;;5.15;2.33;;;22.00;50.00;;;;;;5055215;28;20067;-76
2023/05/07 08:49:33;;;;;;;5.50;2.78;;;21.90;50.00;;;;;;5054939;28;20028;-77
2023/05/07 08:51:59;;;;;;;4.78;2.47;;;21.50;50.60;;;;;;5056135;28;20061;-74
2023/05/07 08:54:31;;;;;;;2.67;2.03;;;21.60;50.90;;;;;;5054915;28;20048;-76
2023/05/07 08:56:56;;;;;;;4.70;2.55;;;21.60;51.10;;;;;;5054902;28;20024;-76
2023/05/07 08:59:22;;;;;;;5.97;2.63;;;21.70;51.50;;;;;;5054715;28;20031;-76
2023/05/07 09:01:48;;;;;;;4.10;2.72;;;21.70;52.70;;;;;;5039294;28;20086;-77
2023/05/07 09:04:14;;;;;;;4.55;2.50;;;21.80;52.90;;;;;;5055511;28;20071;-76
2023/05/07 09:06:41;;;;;;;4.60;2.80;;;21.90;51.80;;;;;;5057815;28;20043;-76
2023/05/07 09:09:07;;;;;;;3.70;2.47;;;21.80;52.00;;;;;;5076101;28;20017;-75
2023/05/07 09:11:33;;;;;;;6.88;2.67;;;21.70;52.40;;;;;;5056734;28;20467;-76
2023/05/07 09:14:03;;;;;;;5.90;2.60;;;21.50;53.10;;;;;;5059737;28;20056;-76
2023/05/07 09:16:30;;;;;;;4.35;2.38;;;21.40;53.00;;;;;;5055953;28;20027;-76
2023/05/07 09:18:58;;;;;;;5.85;2.70;;;21.30;52.50;;;;;;5041254;28;20029;-76
2023/05/07 09:21:25;;;;;;;3.58;2.35;;;21.20;52.90;;;;;;5058384;28;20029;-76
2023/05/07 09:23:52;;;;;;;6.63;2.67;;;21.30;53.50;;;;;;5058602;28;20057;-76
2023/05/07 09:26:20;;;;;;;4.88;2.70;;;21.40;53.10;;;;;;5058181;28;20020;-77
2023/05/07 09:28:46;;;;;;;6.72;2.55;;;21.20;52.80;;;;;;5058299;28;20020;-76
2023/05/07 09:31:12;;;;;;;4.57;2.30;;;21.20;52.70;;;;;;5058219;28;20047;-76
2023/05/07 09:33:39;;;;;;;5.07;2.88;;;21.00;53.90;;;;;;5058080;28;20025;-76
2023/05/07 09:36:06;;;;;;;2.55;2.22;;;20.90;53.50;;;;;;5058269;28;20039;-76
2023/05/07 09:38:33;;;;;;;4.40;3.08;;;20.90;53.50;;;;;;5058136;28;20044;-76
2023/05/07 09:41:03;;;;;;;6.28;2.60;;;21.00;53.50;;;;;;5058157;28;20059;-75
2023/05/07 09:43:35;;;;;;;4.93;2.70;;;21.00;53.40;;;;;;5058153;28;20028;-76
2023/05/07 09:46:05;;;;;;;8.32;4.10;;;21.10;53.20;;;;;;5057866;28;20024;-76
2023/05/07 09:48:34;;;;;;;7.15;3.25;;;21.20;53.00;;;;;;5058192;28;20473;-76
2023/05/07 09:51:02;;;;;;;5.90;2.58;;;21.20;53.60;;;;;;5057674;28;20131;-74
2023/05/07 09:53:31;;;;;;;4.50;2.80;;;21.20;53.70;;;;;;5057805;28;20071;-75
2023/05/07 09:55:58;;;;;;;6.63;2.75;;;21.20;54.40;;;;;;5057696;28;20086;-75
2023/05/07 09:58:25;;;;;;;4.82;2.40;;;21.10;53.10;;;;;;5057675;28;20028;-75
2023/05/07 10:00:52;;;;;;;3.85;2.60;;;21.10;53.00;;;;;;5046296;28;20033;-75
2023/05/07 10:03:20;;;;;;;4.50;2.47;;;21.20;52.90;;;;;;5033772;28;20528;-76
2023/05/07 10:05:47;;;;;;;3.42;2.42;;;21.10;53.20;;;;;;5037306;28;20028;-76
2023/05/07 10:08:16;;;;;;;4.10;2.38;;;21.00;53.80;;;;;;5037737;28;20032;-76
2023/05/07 10:10:42;;;;;;;4.78;2.42;;;20.90;53.10;;;;;;5037492;28;20064;-76
2023/05/07 10:13:10;;;;;;;5.88;2.75;;;20.90;53.30;;;;;;5037447;28;20060;-76
2023/05/07 10:15:36;;;;;;;4.15;2.70;;;20.90;54.20;;;;;;5037278;28;20432;-75
2023/05/07 10:18:04;;;;;;;4.97;3.10;;;20.80;55.70;;;;;;5037326;28;20476;-75
2023/05/07 10:20:30;;;;;;;5.93;2.67;;;20.70;55.60;;;;;;5037384;28;20081;-76
2023/05/07 10:22:58;;;;;;;6.85;3.58;;;20.70;55.90;;;;;;5037591;28;20103;-76
2023/05/07 10:25:31;;;;;;;7.10;2.47;;;20.90;56.00;;;;;;5037615;28;20091;-75
2023/05/07 10:28:01;;;;;;;2.75;1.65;;;21.00;54.00;;;;;;5020702;28;20025;-75
2023/05/07 10:30:32;;;;;;;3.47;1.60;;;21.00;51.70;;;;;;5036972;28;20072;-75
2023/05/07 10:33:05;;;;;;;3.15;1.77;;;21.10;50.50;;;;;;5055285;28;20025;-75
2023/05/07 10:35:37;;;;;;;5.47;1.88;;;21.10;49.10;;;;;;5037447;28;20020;-76
2023/05/07 10:38:04;;;;;;;3.88;2.25;;;20.90;51.30;;;;;;5055025;28;20045;-75
2023/05/07 10:40:31;;;;;;;5.30;2.30;;;20.60;52.90;;;;;;5020789;28;20029;-75
2023/05/07 10:43:02;;;;;;;3.95;2.35;;;20.30;54.40;;;;;;5037105;28;20022;-75
2023/05/07 10:45:28;;;;;;;4.75;2.30;;;20.00;54.50;;;;;;5037071;28;20511;-75
2023/05/07 10:48:14;;;;;;;4.93;1.85;;;19.70;55.20;;;;;;5036976;28;20036;-75
2023/05/07 10:50:42;;;;;;;6.25;1.63;;;19.40;55.80;;;;;;5036791;28;20616;-75
2023/05/07 10:53:19;;;;;;;8.43;1.80;;;19.20;56.60;;;;;;5036364;28;20029;-76
2023/05/07 10:55:49;;;;;;;3.80;1.58;;;19.00;56.10;;;;;;5036681;28;20025;-75
2023/05/07 10:58:31;;;;;;;5.88;1.60;;;18.90;56.30;;;;;;5036833;28;20021;-76
2023/05/07 11:01:01;;;;;;;3.95;1.95;;;18.80;57.40;;;;;;5036740;28;20386;-75
2023/05/07 11:03:27;;;;;;;6.45;2.20;;;18.70;58.30;;;;;;5036477;28;20025;-76
2023/05/07 11:06:27;;;;;;;9.60;2.00;;;18.70;59.40;;;;;;5036639;28;20115;-75
2023/05/07 11:08:56;;;;;;;3.30;1.80;;;18.60;60.40;;;;;;4994371;28;20230;-74
2023/05/07 11:11:44;;;;;;;3.35;2.00;;;18.60;61.00;;;;;;5036562;28;20124;-74
2023/05/07 11:14:10;;;;;;;5.85;2.60;;;18.50;61.40;;;;;;5036468;28;20017;-75
2023/05/07 11:16:37;;;;;;;6.57;2.70;;;18.40;61.70;;;;;;5035887;28;20105;-75
2023/05/07 11:19:03;;;;;;;4.78;2.88;;;18.30;61.80;;;;;;5036589;28;20070;-75
2023/05/07 11:21:41;;;;;;;4.93;2.22;;;18.20;62.80;;;;;;5036315;28;20060;-74
2023/05/07 11:24:09;;;;;;;6.05;2.45;;;18.00;63.60;;;;;;5036156;28;20062;-75
2023/05/07 11:26:55;;;;;;;10.98;3.25;;;17.80;64.50;;;;;;5036006;28;20039;-76
2023/05/07 11:29:23;;;;;;;10.80;4.15;;;17.80;67.10;;;;;;5036442;28;20027;-75
2023/05/07 11:31:53;;;;;;;10.95;4.43;;;17.60;69.70;;;;;;5036145;28;20458;-75
2023/05/07 11:34:26;;;;;;;17.83;4.30;;;17.40;72.50;;;;;;5036237;28;20029;-75
2023/05/07 11:36:59;;;;;;;12.32;4.20;;;17.00;71.90;;;;;;5036307;28;20028;-75
2023/05/07 11:39:29;;;;;;;13.27;4.85;;;16.60;74.10;;;;;;5037314;28;20482;-76
2023/05/07 11:41:55;;;;;;;16.73;4.47;;;16.40;77.90;;;;;;5035042;28;20028;-77
2023/05/07 11:44:21;;;;;;;5.82;1.85;;;16.00;76.20;;;;;;5035824;28;20032;-76
2023/05/07 11:46:46;;;;;;;15.35;6.05;;;15.80;63.50;;;;;;5035702;28;20031;-77
2023/05/07 11:49:17;;;;;;;15.52;3.53;;;15.70;64.40;;;;;;5036075;28;20025;-76
2023/05/07 11:51:42;;;;;;;3.30;1.70;;;15.50;67.00;;;;;;5035914;28;20033;-75
2023/05/07 11:54:11;;;;;;;4.47;1.10;;;15.10;63.20;;;;;;5035888;28;20557;-76
2023/05/07 11:56:37;;;;;;;9.10;2.47;;;15.30;60.60;;;;;;5019472;28;20029;-75
2023/05/07 11:59:02;;;;;;;8.95;2.72;;;15.30;61.80;;;;;;5035591;28;20047;-75
2023/05/07 12:01:28;;;;;;;4.38;2.05;;;15.30;65.80;;;;;;5035679;28;20461;-75
2023/05/07 12:03:54;;;;;;;8.57;2.80;;;15.10;67.00;;;;;;5035842;28;20379;-76
2023/05/07 12:06:19;;;;;;;9.68;3.15;;;14.90;65.60;;;;;;5035667;28;20134;-75
2023/05/07 12:08:46;;;;;;;9.85;3.97;;;14.60;69.80;;;;;;5035440;28;20078;-75
2023/05/07 12:11:22;;;;;;;14.45;3.65;;;14.30;72.20;;;;;;5053313;28;20045;-76
2023/05/07 12:13:47;;;;;;;10.48;4.15;;;14.10;74.20;;;;;;5035299;28;20032;-75
2023/05/07 12:16:15;;;;;;;8.90;3.92;;;14.10;76.40;;;;;;5035281;28;20033;-75
2023/05/07 12:18:41;;;;;;;10.45;4.78;;;14.10;76.80;;;;;;5035436;28;20025;-76
2023/05/07 12:21:08;;;;;;;12.52;4.80;;;14.10;77.20;;;;;;5035421;28;20045;-75
2023/05/07 12:23:36;;;;;;;7.22;4.47;;;14.00;78.00;;;;;;5034920;28;20363;-77
2023/05/07 12:26:02;;;;;;;9.98;4.03;;;14.00;79.50;;;;;;5035561;28;20112;-75
2023/05/07 12:28:27;;;;;;;5.65;3.00;;;14.00;81.50;;;;;;5035257;28;20577;-74
2023/05/07 12:30:53;;;;;;;8.98;3.72;;;14.00;82.60;;;;;;5035069;28;20044;-75
2023/05/07 12:33:24;;;;;;;5.20;3.50;;;14.00;82.90;;;;;;5019036;28;20063;-76
2023/05/07 12:35:50;;;;;;;10.30;4.47;;;14.10;83.30;;;;;;5035117;28;20025;-76
2023/05/07 12:38:17;;;;;;;5.85;2.63;;;14.10;82.90;;;;;;5034858;28;20049;-76
2023/05/07 12:40:53;;;;;;;5.00;2.30;;;14.00;81.80;;;;;;5052913;28;20147;-76
2023/05/07 12:43:25;;;;;;;6.07;1.98;;;14.00;80.90;;;;;;5035222;28;20032;-76
2023/05/07 12:45:53;;;;;;;5.18;1.60;;;14.10;80.10;;;;;;5034951;28;20490;-75
2023/05/07 12:48:20;;;;;;;2.95;1.38;;;14.00;77.20;;;;;;5035076;28;20031;-76